sensor_id;sensor_type;location;lat;lon;timestamp;P1;durP1;ratioP1;P2;durP2;ratioP2
21741;SDS011;11033;47.490;11.116;2023-12-20T00:01:02;2.78;;;2.38;;
21741;SDS011;11033;47.490;11.116;2023-12-20T00:03:28;3.33;;;2.55;;
21741;SDS011;11033;47.490;11.116;2023-12-20T00:05:53;5.53;;;2.50;;
21741;SDS011;11033;47.490;11.116;2023-12-20T00:08:19;2.65;;;2.40;;
21741;SDS011;11033;47.490;11.116;2023-12-20T00:10:44;3.25;;;2.60;;
21741;SDS011;11033;47.490;11.116;2023-12-20T00:13:09;3.03;;;2.22;;
21741;SDS011;11033;47.490;11.116;2023-12-20T00:15:35;3.33;;;2.22;;
21741;SDS011;11033;47.490;11.116;2023-12-20T00:18:00;2.95;;;1.90;;
21741;SDS011;11033;47.490;11.116;2023-12-20T00:20:26;2.20;;;2.00;;
21741;SDS011;11033;47.490;11.116;2023-12-20T00:22:51;2.78;;;2.10;;
21741;SDS011;11033;47.490;11.116;2023-12-20T00:25:17;1.65;;;1.48;;
21741;SDS011;11033;47.490;11.116;2023-12-20T00:27:42;2.55;;;1.92;;
21741;SDS011;11033;47.490;11.116;2023-12-20T00:30:08;2.20;;;2.00;;
21741;SDS011;11033;47.490;11.116;2023-12-20T00:32:34;2.50;;;2.10;;
21741;SDS011;11033;47.490;11.116;2023-12-20T00:35:00;3.65;;;2.25;;
21741;SDS011;11033;47.490;11.116;2023-12-20T00:37:26;6.00;;;4.13;;
21741;SDS011;11033;47.490;11.116;2023-12-20T00:39:51;2.33;;;2.00;;
21741;SDS011;11033;47.490;11.116;2023-12-20T00:42:16;2.30;;;2.00;;
21741;SDS011;11033;47.490;11.116;2023-12-20T00:44:42;2.58;;;1.90;;
21741;SDS011;11033;47.490;11.116;2023-12-20T00:47:07;2.45;;;2.20;;
21741;SDS011;11033;47.490;11.116;2023-12-20T00:49:32;2.55;;;2.15;;
21741;SDS011;11033;47.490;11.116;2023-12-20T00:51:57;2.33;;;2.05;;
21741;SDS011;11033;47.490;11.116;2023-12-20T00:54:23;2.10;;;1.75;;
21741;SDS011;11033;47.490;11.116;2023-12-20T00:56:48;2.65;;;2.00;;
21741;SDS011;11033;47.490;11.116;2023-12-20T00:59:13;2.40;;;1.85;;
21741;SDS011;11033;47.490;11.116;2023-12-20T01:01:39;3.97;;;2.30;;
21741;SDS011;11033;47.490;11.116;2023-12-20T01:04:05;2.00;;;1.80;;
21741;SDS011;11033;47.490;11.116;2023-12-20T01:06:30;2.10;;;1.90;;
21741;SDS011;11033;47.490;11.116;2023-12-20T01:08:55;2.20;;;1.90;;
21741;SDS011;11033;47.490;11.116;2023-12-20T01:11:20;2.25;;;1.83;;
21741;SDS011;11033;47.490;11.116;2023-12-20T01:13:46;1.88;;;1.70;;
21741;SDS011;11033;47.490;11.116;2023-12-20T01:16:12;3.42;;;2.03;;
21741;SDS011;11033;47.490;11.116;2023-12-20T01:18:37;2.45;;;2.20;;
21741;SDS011;11033;47.490;11.116;2023-12-20T01:21:04;2.92;;;2.00;;
21741;SDS011;11033;47.490;11.116;2023-12-20T01:23:29;2.08;;;1.88;;
21741;SDS011;11033;47.490;11.116;2023-12-20T01:25:55;2.25;;;1.70;;
21741;SDS011;11033;47.490;11.116;2023-12-20T01:28:20;2.05;;;1.75;;
21741;SDS011;11033;47.490;11.116;2023-12-20T01:30:46;1.77;;;1.67;;
21741;SDS011;11033;47.490;11.116;2023-12-20T01:33:11;4.38;;;2.20;;
21741;SDS011;11033;47.490;11.116;2023-12-20T01:35:36;2.88;;;2.10;;
21741;SDS011;11033;47.490;11.116;2023-12-20T01:38:02;2.42;;;1.80;;
21741;SDS011;11033;47.490;11.116;2023-12-20T01:40:27;2.00;;;1.80;;
21741;SDS011;11033;47.490;11.116;2023-12-20T01:43:04;2.35;;;1.58;;
21741;SDS011;11033;47.490;11.116;2023-12-20T01:45:32;2.28;;;1.80;;
21741;SDS011;11033;47.490;11.116;2023-12-20T01:47:57;2.13;;;1.67;;
21741;SDS011;11033;47.490;11.116;2023-12-20T01:50:23;2.80;;;1.92;;
21741;SDS011;11033;47.490;11.116;2023-12-20T01:52:49;2.30;;;1.77;;
21741;SDS011;11033;47.490;11.116;2023-12-20T01:55:17;3.90;;;2.30;;
21741;SDS011;11033;47.490;11.116;2023-12-20T01:57:44;2.20;;;1.90;;
21741;SDS011;11033;47.490;11.116;2023-12-20T02:00:10;2.50;;;2.10;;
21741;SDS011;11033;47.490;11.116;2023-12-20T02:02:39;4.32;;;2.33;;
21741;SDS011;11033;47.490;11.116;2023-12-20T02:05:08;3.95;;;2.65;;
21741;SDS011;11033;47.490;11.116;2023-12-20T02:07:34;2.95;;;2.10;;
21741;SDS011;11033;47.490;11.116;2023-12-20T02:10:00;3.35;;;2.00;;
21741;SDS011;11033;47.490;11.116;2023-12-20T02:12:26;3.28;;;2.17;;
21741;SDS011;11033;47.490;11.116;2023-12-20T02:14:51;2.35;;;1.88;;
21741;SDS011;11033;47.490;11.116;2023-12-20T02:17:16;3.03;;;2.10;;
21741;SDS011;11033;47.490;11.116;2023-12-20T02:19:42;2.88;;;1.75;;
21741;SDS011;11033;47.490;11.116;2023-12-20T02:22:11;2.58;;;2.13;;
21741;SDS011;11033;47.490;11.116;2023-12-20T02:24:37;3.38;;;2.13;;
21741;SDS011;11033;47.490;11.116;2023-12-20T02:27:03;3.45;;;2.17;;
21741;SDS011;11033;47.490;11.116;2023-12-20T02:29:30;2.97;;;2.17;;
21741;SDS011;11033;47.490;11.116;2023-12-20T02:31:55;2.33;;;1.80;;
21741;SDS011;11033;47.490;11.116;2023-12-20T02:34:21;2.78;;;1.88;;
21741;SDS011;11033;47.490;11.116;2023-12-20T02:36:46;2.78;;;2.03;;
21741;SDS011;11033;47.490;11.116;2023-12-20T02:39:11;2.13;;;1.90;;
21741;SDS011;11033;47.490;11.116;2023-12-20T02:41:37;2.70;;;1.75;;
21741;SDS011;11033;47.490;11.116;2023-12-20T02:44:03;3.63;;;1.80;;
21741;SDS011;11033;47.490;11.116;2023-12-20T02:46:28;2.22;;;1.85;;
21741;SDS011;11033;47.490;11.116;2023-12-20T02:48:53;3.35;;;2.00;;
21741;SDS011;11033;47.490;11.116;2023-12-20T02:51:19;4.25;;;2.40;;
21741;SDS011;11033;47.490;11.116;2023-12-20T02:53:44;3.85;;;2.50;;
21741;SDS011;11033;47.490;11.116;2023-12-20T02:56:09;2.92;;;2.03;;
21741;SDS011;11033;47.490;11.116;2023-12-20T02:58:35;4.35;;;2.00;;
21741;SDS011;11033;47.490;11.116;2023-12-20T03:01:00;2.55;;;1.95;;
21741;SDS011;11033;47.490;11.116;2023-12-20T03:03:25;2.30;;;1.95;;
21741;SDS011;11033;47.490;11.116;2023-12-20T03:05:51;2.60;;;1.90;;
21741;SDS011;11033;47.490;11.116;2023-12-20T03:08:16;2.58;;;2.00;;
21741;SDS011;11033;47.490;11.116;2023-12-20T03:10:42;3.10;;;2.10;;
21741;SDS011;11033;47.490;11.116;2023-12-20T03:13:07;2.40;;;2.20;;
21741;SDS011;11033;47.490;11.116;2023-12-20T03:15:32;2.38;;;2.00;;
21741;SDS011;11033;47.490;11.116;2023-12-20T03:17:58;3.35;;;2.10;;
21741;SDS011;11033;47.490;11.116;2023-12-20T03:20:24;2.40;;;1.95;;
21741;SDS011;11033;47.490;11.116;2023-12-20T03:22:51;3.00;;;2.25;;
21741;SDS011;11033;47.490;11.116;2023-12-20T03:25:16;2.30;;;2.10;;
21741;SDS011;11033;47.490;11.116;2023-12-20T03:27:41;1.88;;;1.77;;
21741;SDS011;11033;47.490;11.116;2023-12-20T03:30:07;2.20;;;2.00;;
21741;SDS011;11033;47.490;11.116;2023-12-20T03:32:33;2.33;;;1.88;;
21741;SDS011;11033;47.490;11.116;2023-12-20T03:34:58;3.65;;;2.08;;
21741;SDS011;11033;47.490;11.116;2023-12-20T03:37:23;2.22;;;1.98;;
21741;SDS011;11033;47.490;11.116;2023-12-20T03:39:49;2.22;;;2.03;;
21741;SDS011;11033;47.490;11.116;2023-12-20T03:42:14;2.45;;;2.22;;
21741;SDS011;11033;47.490;11.116;2023-12-20T03:44:39;2.30;;;2.10;;
21741;SDS011;11033;47.490;11.116;2023-12-20T03:47:07;2.65;;;2.40;;
21741;SDS011;11033;47.490;11.116;2023-12-20T03:49:32;2.88;;;2.00;;
21741;SDS011;11033;47.490;11.116;2023-12-20T03:51:58;2.67;;;2.20;;
21741;SDS011;11033;47.490;11.116;2023-12-20T03:54:23;2.67;;;2.10;;
21741;SDS011;11033;47.490;11.116;2023-12-20T03:56:49;3.80;;;2.30;;
21741;SDS011;11033;47.490;11.116;2023-12-20T03:59:14;5.07;;;2.88;;
21741;SDS011;11033;47.490;11.116;2023-12-20T04:01:42;3.33;;;2.38;;
21741;SDS011;11033;47.490;11.116;2023-12-20T04:04:09;4.13;;;2.50;;
21741;SDS011;11033;47.490;11.116;2023-12-20T04:06:35;3.03;;;2.30;;
21741;SDS011;11033;47.490;11.116;2023-12-20T04:09:00;2.95;;;2.10;;
21741;SDS011;11033;47.490;11.116;2023-12-20T04:11:26;2.55;;;2.13;;
21741;SDS011;11033;47.490;11.116;2023-12-20T04:13:51;2.38;;;1.98;;
21741;SDS011;11033;47.490;11.116;2023-12-20T04:16:16;2.88;;;2.00;;
21741;SDS011;11033;47.490;11.116;2023-12-20T04:18:41;3.15;;;2.30;;
21741;SDS011;11033;47.490;11.116;2023-12-20T04:21:07;2.53;;;2.17;;
21741;SDS011;11033;47.490;11.116;2023-12-20T04:23:32;2.92;;;1.98;;
21741;SDS011;11033;47.490;11.116;2023-12-20T04:25:58;3.25;;;2.42;;
21741;SDS011;11033;47.490;11.116;2023-12-20T04:28:23;2.03;;;1.90;;
21741;SDS011;11033;47.490;11.116;2023-12-20T04:30:48;2.72;;;2.15;;
21741;SDS011;11033;47.490;11.116;2023-12-20T04:33:14;3.80;;;2.10;;
21741;SDS011;11033;47.490;11.116;2023-12-20T04:35:39;2.20;;;2.00;;
21741;SDS011;11033;47.490;11.116;2023-12-20T04:38:05;2.83;;;2.45;;
21741;SDS011;11033;47.490;11.116;2023-12-20T04:40:31;2.50;;;2.30;;
21741;SDS011;11033;47.490;11.116;2023-12-20T04:42:57;2.80;;;2.30;;
21741;SDS011;11033;47.490;11.116;2023-12-20T04:45:22;2.17;;;1.95;;
21741;SDS011;11033;47.490;11.116;2023-12-20T04:47:49;3.60;;;2.50;;
21741;SDS011;11033;47.490;11.116;2023-12-20T04:50:15;3.22;;;2.63;;
21741;SDS011;11033;47.490;11.116;2023-12-20T04:52:40;3.60;;;2.50;;
21741;SDS011;11033;47.490;11.116;2023-12-20T04:55:06;3.20;;;2.33;;
21741;SDS011;11033;47.490;11.116;2023-12-20T04:57:31;2.88;;;2.20;;
21741;SDS011;11033;47.490;11.116;2023-12-20T04:59:56;2.55;;;2.30;;
21741;SDS011;11033;47.490;11.116;2023-12-20T05:02:22;2.63;;;2.15;;
21741;SDS011;11033;47.490;11.116;2023-12-20T05:04:47;2.70;;;2.30;;
21741;SDS011;11033;47.490;11.116;2023-12-20T05:07:12;2.70;;;2.28;;
21741;SDS011;11033;47.490;11.116;2023-12-20T05:09:38;3.05;;;2.20;;
21741;SDS011;11033;47.490;11.116;2023-12-20T05:12:03;3.25;;;2.35;;
21741;SDS011;11033;47.490;11.116;2023-12-20T05:14:28;2.67;;;2.33;;
21741;SDS011;11033;47.490;11.116;2023-12-20T05:16:54;3.92;;;2.70;;
21741;SDS011;11033;47.490;11.116;2023-12-20T05:19:19;4.00;;;2.60;;
21741;SDS011;11033;47.490;11.116;2023-12-20T05:21:44;4.15;;;2.65;;
21741;SDS011;11033;47.490;11.116;2023-12-20T05:24:09;2.75;;;2.45;;
21741;SDS011;11033;47.490;11.116;2023-12-20T05:26:35;3.33;;;2.40;;
21741;SDS011;11033;47.490;11.116;2023-12-20T05:29:00;3.47;;;2.53;;
21741;SDS011;11033;47.490;11.116;2023-12-20T05:31:25;3.70;;;2.78;;
21741;SDS011;11033;47.490;11.116;2023-12-20T05:33:50;2.92;;;2.38;;
21741;SDS011;11033;47.490;11.116;2023-12-20T05:36:16;3.20;;;2.58;;
21741;SDS011;11033;47.490;11.116;2023-12-20T05:38:41;3.22;;;2.53;;
21741;SDS011;11033;47.490;11.116;2023-12-20T05:41:06;3.63;;;2.60;;
21741;SDS011;11033;47.490;11.116;2023-12-20T05:43:32;2.95;;;2.45;;
21741;SDS011;11033;47.490;11.116;2023-12-20T05:45:57;3.75;;;2.58;;
21741;SDS011;11033;47.490;11.116;2023-12-20T05:48:23;2.83;;;2.55;;
21741;SDS011;11033;47.490;11.116;2023-12-20T05:50:48;3.40;;;2.70;;
21741;SDS011;11033;47.490;11.116;2023-12-20T05:53:14;5.50;;;3.40;;
21741;SDS011;11033;47.490;11.116;2023-12-20T05:55:39;5.55;;;4.07;;
21741;SDS011;11033;47.490;11.116;2023-12-20T05:58:05;6.60;;;4.70;;
21741;SDS011;11033;47.490;11.116;2023-12-20T06:00:30;5.93;;;4.50;;
21741;SDS011;11033;47.490;11.116;2023-12-20T06:02:55;7.57;;;5.18;;
21741;SDS011;11033;47.490;11.116;2023-12-20T06:05:20;6.18;;;5.45;;
21741;SDS011;11033;47.490;11.116;2023-12-20T06:07:46;7.93;;;4.93;;
21741;SDS011;11033;47.490;11.116;2023-12-20T06:10:13;8.07;;;5.05;;
21741;SDS011;11033;47.490;11.116;2023-12-20T06:12:39;7.68;;;5.57;;
21741;SDS011;11033;47.490;11.116;2023-12-20T06:15:04;8.45;;;5.13;;
21741;SDS011;11033;47.490;11.116;2023-12-20T06:17:30;6.38;;;4.55;;
21741;SDS011;11033;47.490;11.116;2023-12-20T06:19:56;4.82;;;4.10;;
21741;SDS011;11033;47.490;11.116;2023-12-20T06:22:22;3.95;;;3.50;;
21741;SDS011;11033;47.490;11.116;2023-12-20T06:24:47;5.97;;;3.72;;
21741;SDS011;11033;47.490;11.116;2023-12-20T06:27:13;4.85;;;3.70;;
21741;SDS011;11033;47.490;11.116;2023-12-20T06:29:38;4.65;;;3.55;;
21741;SDS011;11033;47.490;11.116;2023-12-20T06:32:03;5.32;;;3.83;;
21741;SDS011;11033;47.490;11.116;2023-12-20T06:34:29;4.25;;;3.45;;
21741;SDS011;11033;47.490;11.116;2023-12-20T06:36:54;4.72;;;3.70;;
21741;SDS011;11033;47.490;11.116;2023-12-20T06:39:20;5.18;;;3.72;;
21741;SDS011;11033;47.490;11.116;2023-12-20T06:41:45;5.22;;;4.18;;
21741;SDS011;11033;47.490;11.116;2023-12-20T06:44:10;3.75;;;3.15;;
21741;SDS011;11033;47.490;11.116;2023-12-20T06:46:36;4.65;;;3.50;;
21741;SDS011;11033;47.490;11.116;2023-12-20T06:49:01;4.80;;;3.55;;
21741;SDS011;11033;47.490;11.116;2023-12-20T06:51:26;4.55;;;3.50;;
21741;SDS011;11033;47.490;11.116;2023-12-20T06:53:52;4.05;;;3.40;;
21741;SDS011;11033;47.490;11.116;2023-12-20T06:56:18;2.92;;;2.38;;
21741;SDS011;11033;47.490;11.116;2023-12-20T06:58:43;3.97;;;2.95;;
21741;SDS011;11033;47.490;11.116;2023-12-20T07:01:11;5.57;;;4.10;;
21741;SDS011;11033;47.490;11.116;2023-12-20T07:03:37;7.95;;;4.35;;
21741;SDS011;11033;47.490;11.116;2023-12-20T07:06:03;5.85;;;4.10;;
21741;SDS011;11033;47.490;11.116;2023-12-20T07:08:28;5.05;;;3.80;;
21741;SDS011;11033;47.490;11.116;2023-12-20T07:10:54;4.38;;;3.58;;
21741;SDS011;11033;47.490;11.116;2023-12-20T07:13:19;3.97;;;3.45;;
21741;SDS011;11033;47.490;11.116;2023-12-20T07:15:44;6.75;;;3.67;;
21741;SDS011;11033;47.490;11.116;2023-12-20T07:18:10;6.13;;;3.85;;
21741;SDS011;11033;47.490;11.116;2023-12-20T07:20:35;4.15;;;3.40;;
21741;SDS011;11033;47.490;11.116;2023-12-20T07:23:00;5.20;;;3.83;;
21741;SDS011;11033;47.490;11.116;2023-12-20T07:25:26;4.03;;;3.58;;
21741;SDS011;11033;47.490;11.116;2023-12-20T07:27:51;4.88;;;3.42;;
21741;SDS011;11033;47.490;11.116;2023-12-20T07:30:16;5.43;;;3.80;;
21741;SDS011;11033;47.490;11.116;2023-12-20T07:32:42;4.55;;;3.70;;
21741;SDS011;11033;47.490;11.116;2023-12-20T07:35:07;4.95;;;3.65;;
21741;SDS011;11033;47.490;11.116;2023-12-20T07:37:32;4.60;;;3.42;;
21741;SDS011;11033;47.490;11.116;2023-12-20T07:39:58;3.85;;;3.00;;
21741;SDS011;11033;47.490;11.116;2023-12-20T07:42:23;5.47;;;3.70;;
21741;SDS011;11033;47.490;11.116;2023-12-20T07:44:48;3.85;;;3.30;;
21741;SDS011;11033;47.490;11.116;2023-12-20T07:47:14;3.65;;;3.08;;
21741;SDS011;11033;47.490;11.116;2023-12-20T07:49:42;4.55;;;3.10;;
21741;SDS011;11033;47.490;11.116;2023-12-20T07:52:07;5.50;;;3.92;;
21741;SDS011;11033;47.490;11.116;2023-12-20T07:54:33;4.35;;;3.58;;
21741;SDS011;11033;47.490;11.116;2023-12-20T07:56:58;5.03;;;3.67;;
21741;SDS011;11033;47.490;11.116;2023-12-20T07:59:23;5.22;;;4.00;;
21741;SDS011;11033;47.490;11.116;2023-12-20T08:01:49;5.53;;;3.25;;
21741;SDS011;11033;47.490;11.116;2023-12-20T08:04:14;4.47;;;3.50;;
21741;SDS011;11033;47.490;11.116;2023-12-20T08:06:39;4.97;;;3.80;;
21741;SDS011;11033;47.490;11.116;2023-12-20T08:09:05;5.80;;;4.97;;
21741;SDS011;11033;47.490;11.116;2023-12-20T08:11:30;5.88;;;4.70;;
21741;SDS011;11033;47.490;11.116;2023-12-20T08:13:55;6.68;;;5.10;;
21741;SDS011;11033;47.490;11.116;2023-12-20T08:16:21;5.55;;;4.95;;
21741;SDS011;11033;47.490;11.116;2023-12-20T08:18:46;5.93;;;5.00;;
21741;SDS011;11033;47.490;11.116;2023-12-20T08:21:12;5.38;;;4.00;;
21741;SDS011;11033;47.490;11.116;2023-12-20T08:23:37;4.30;;;3.78;;
21741;SDS011;11033;47.490;11.116;2023-12-20T08:26:04;6.43;;;4.75;;
21741;SDS011;11033;47.490;11.116;2023-12-20T08:28:32;9.00;;;5.18;;
21741;SDS011;11033;47.490;11.116;2023-12-20T08:30:58;8.80;;;5.18;;
21741;SDS011;11033;47.490;11.116;2023-12-20T08:33:23;9.13;;;5.18;;
21741;SDS011;11033;47.490;11.116;2023-12-20T08:35:49;9.27;;;5.20;;
21741;SDS011;11033;47.490;11.116;2023-12-20T08:38:14;8.38;;;4.88;;
21741;SDS011;11033;47.490;11.116;2023-12-20T08:40:39;6.00;;;4.75;;
21741;SDS011;11033;47.490;11.116;2023-12-20T08:43:05;11.00;;;4.95;;
21741;SDS011;11033;47.490;11.116;2023-12-20T08:45:30;11.02;;;5.18;;
21741;SDS011;11033;47.490;11.116;2023-12-20T08:47:55;10.73;;;6.72;;
21741;SDS011;11033;47.490;11.116;2023-12-20T08:50:20;10.70;;;6.57;;
21741;SDS011;11033;47.490;11.116;2023-12-20T08:52:46;11.40;;;6.80;;
21741;SDS011;11033;47.490;11.116;2023-12-20T08:55:11;9.48;;;6.47;;
21741;SDS011;11033;47.490;11.116;2023-12-20T08:57:37;10.55;;;6.80;;
21741;SDS011;11033;47.490;11.116;2023-12-20T09:00:03;9.20;;;6.03;;
21741;SDS011;11033;47.490;11.116;2023-12-20T09:02:29;9.48;;;6.85;;
21741;SDS011;11033;47.490;11.116;2023-12-20T09:04:54;8.77;;;6.03;;
21741;SDS011;11033;47.490;11.116;2023-12-20T09:07:24;11.13;;;6.45;;
21741;SDS011;11033;47.490;11.116;2023-12-20T09:09:50;8.85;;;6.32;;
21741;SDS011;11033;47.490;11.116;2023-12-20T09:12:17;9.80;;;5.90;;
21741;SDS011;11033;47.490;11.116;2023-12-20T09:14:43;8.75;;;6.10;;
21741;SDS011;11033;47.490;11.116;2023-12-20T09:17:09;9.77;;;6.70;;
21741;SDS011;11033;47.490;11.116;2023-12-20T09:19:36;8.20;;;5.50;;
21741;SDS011;11033;47.490;11.116;2023-12-20T09:22:01;9.50;;;6.22;;
21741;SDS011;11033;47.490;11.116;2023-12-20T09:24:27;9.27;;;6.43;;
21741;SDS011;11033;47.490;11.116;2023-12-20T09:26:52;9.73;;;5.45;;
21741;SDS011;11033;47.490;11.116;2023-12-20T09:29:17;7.53;;;5.15;;
21741;SDS011;11033;47.490;11.116;2023-12-20T09:31:44;5.80;;;4.50;;
21741;SDS011;11033;47.490;11.116;2023-12-20T09:34:11;7.93;;;4.50;;
21741;SDS011;11033;47.490;11.116;2023-12-20T09:36:36;6.63;;;4.82;;
21741;SDS011;11033;47.490;11.116;2023-12-20T09:39:03;7.00;;;4.80;;
21741;SDS011;11033;47.490;11.116;2023-12-20T09:41:30;5.57;;;3.80;;
21741;SDS011;11033;47.490;11.116;2023-12-20T09:44:02;9.98;;;5.00;;
21741;SDS011;11033;47.490;11.116;2023-12-20T09:46:27;5.35;;;4.22;;
21741;SDS011;11033;47.490;11.116;2023-12-20T09:48:56;8.73;;;4.80;;
21741;SDS011;11033;47.490;11.116;2023-12-20T09:51:25;5.57;;;4.38;;
21741;SDS011;11033;47.490;11.116;2023-12-20T09:53:51;7.55;;;4.88;;
21741;SDS011;11033;47.490;11.116;2023-12-20T09:56:19;6.80;;;4.75;;
21741;SDS011;11033;47.490;11.116;2023-12-20T09:58:45;6.88;;;4.65;;
21741;SDS011;11033;47.490;11.116;2023-12-20T10:01:10;6.55;;;4.90;;
21741;SDS011;11033;47.490;11.116;2023-12-20T10:03:36;6.90;;;4.60;;
21741;SDS011;11033;47.490;11.116;2023-12-20T10:06:05;8.38;;;5.28;;
21741;SDS011;11033;47.490;11.116;2023-12-20T10:08:31;8.02;;;5.25;;
21741;SDS011;11033;47.490;11.116;2023-12-20T10:10:57;8.52;;;4.75;;
21741;SDS011;11033;47.490;11.116;2023-12-20T10:13:27;5.88;;;4.85;;
21741;SDS011;11033;47.490;11.116;2023-12-20T10:15:52;5.65;;;4.28;;
21741;SDS011;11033;47.490;11.116;2023-12-20T10:18:20;3.45;;;3.10;;
21741;SDS011;11033;47.490;11.116;2023-12-20T10:20:46;5.90;;;3.20;;
21741;SDS011;11033;47.490;11.116;2023-12-20T10:23:11;4.28;;;3.22;;
21741;SDS011;11033;47.490;11.116;2023-12-20T10:25:38;6.68;;;3.28;;
21741;SDS011;11033;47.490;11.116;2023-12-20T10:30:42;3.67;;;3.00;;
21741;SDS011;11033;47.490;11.116;2023-12-20T10:33:08;4.10;;;3.00;;
21741;SDS011;11033;47.490;11.116;2023-12-20T10:35:34;6.22;;;3.40;;
21741;SDS011;11033;47.490;11.116;2023-12-20T10:38:02;4.25;;;3.55;;
21741;SDS011;11033;47.490;11.116;2023-12-20T10:40:29;5.95;;;4.35;;
21741;SDS011;11033;47.490;11.116;2023-12-20T10:42:54;5.47;;;4.13;;
21741;SDS011;11033;47.490;11.116;2023-12-20T10:45:22;6.57;;;4.55;;
21741;SDS011;11033;47.490;11.116;2023-12-20T10:47:48;4.35;;;2.97;;
21741;SDS011;11033;47.490;11.116;2023-12-20T10:50:14;5.00;;;3.50;;
21741;SDS011;11033;47.490;11.116;2023-12-20T10:52:40;5.03;;;3.50;;
21741;SDS011;11033;47.490;11.116;2023-12-20T10:55:07;6.05;;;4.10;;
21741;SDS011;11033;47.490;11.116;2023-12-20T10:57:33;7.30;;;4.97;;
21741;SDS011;11033;47.490;11.116;2023-12-20T11:00:01;6.03;;;4.13;;
21741;SDS011;11033;47.490;11.116;2023-12-20T11:02:31;5.78;;;4.00;;
21741;SDS011;11033;47.490;11.116;2023-12-20T11:05:12;6.57;;;4.30;;
21741;SDS011;11033;47.490;11.116;2023-12-20T11:07:48;4.75;;;3.88;;
21741;SDS011;11033;47.490;11.116;2023-12-20T11:13:05;6.78;;;4.35;;
21741;SDS011;11033;47.490;11.116;2023-12-20T11:15:35;6.40;;;3.70;;
21741;SDS011;11033;47.490;11.116;2023-12-20T11:18:01;5.70;;;4.00;;
21741;SDS011;11033;47.490;11.116;2023-12-20T11:20:35;6.72;;;4.53;;
21741;SDS011;11033;47.490;11.116;2023-12-20T11:23:02;3.28;;;2.92;;
21741;SDS011;11033;47.490;11.116;2023-12-20T11:25:28;3.63;;;2.75;;
21741;SDS011;11033;47.490;11.116;2023-12-20T11:28:15;4.45;;;2.13;;
21741;SDS011;11033;47.490;11.116;2023-12-20T11:30:46;3.15;;;2.85;;
21741;SDS011;11033;47.490;11.116;2023-12-20T11:33:12;4.25;;;3.38;;
21741;SDS011;11033;47.490;11.116;2023-12-20T11:35:41;5.57;;;2.40;;
21741;SDS011;11033;47.490;11.116;2023-12-20T11:38:10;2.40;;;2.20;;
21741;SDS011;11033;47.490;11.116;2023-12-20T11:40:35;2.90;;;2.20;;
21741;SDS011;11033;47.490;11.116;2023-12-20T11:43:01;2.35;;;2.03;;
21741;SDS011;11033;47.490;11.116;2023-12-20T11:45:27;2.40;;;2.20;;
21741;SDS011;11033;47.490;11.116;2023-12-20T11:47:53;2.83;;;2.22;;
21741;SDS011;11033;47.490;11.116;2023-12-20T11:50:21;2.22;;;2.00;;
21741;SDS011;11033;47.490;11.116;2023-12-20T11:52:47;5.72;;;2.50;;
21741;SDS011;11033;47.490;11.116;2023-12-20T11:55:13;3.42;;;2.60;;
21741;SDS011;11033;47.490;11.116;2023-12-20T11:57:39;2.10;;;1.60;;
21741;SDS011;11033;47.490;11.116;2023-12-20T12:00:05;1.95;;;1.83;;
21741;SDS011;11033;47.490;11.116;2023-12-20T12:02:31;2.10;;;1.88;;
21741;SDS011;11033;47.490;11.116;2023-12-20T12:04:56;2.63;;;1.65;;
21741;SDS011;11033;47.490;11.116;2023-12-20T12:07:23;2.38;;;1.45;;
21741;SDS011;11033;47.490;11.116;2023-12-20T12:09:49;1.90;;;1.75;;
21741;SDS011;11033;47.490;11.116;2023-12-20T12:12:14;2.42;;;1.42;;
21741;SDS011;11033;47.490;11.116;2023-12-20T12:14:40;1.02;;;1.00;;
21741;SDS011;11033;47.490;11.116;2023-12-20T12:17:14;1.17;;;1.08;;
21741;SDS011;11033;47.490;11.116;2023-12-20T12:19:40;1.25;;;1.15;;
21741;SDS011;11033;47.490;11.116;2023-12-20T12:22:07;1.60;;;1.20;;
21741;SDS011;11033;47.490;11.116;2023-12-20T12:24:36;1.48;;;1.30;;
21741;SDS011;11033;47.490;11.116;2023-12-20T12:27:02;1.80;;;1.00;;
21741;SDS011;11033;47.490;11.116;2023-12-20T12:29:28;0.88;;;0.88;;
21741;SDS011;11033;47.490;11.116;2023-12-20T12:31:53;0.90;;;0.90;;
21741;SDS011;11033;47.490;11.116;2023-12-20T12:34:19;1.00;;;0.98;;
21741;SDS011;11033;47.490;11.116;2023-12-20T12:36:44;1.00;;;1.00;;
21741;SDS011;11033;47.490;11.116;2023-12-20T12:39:17;1.50;;;1.30;;
21741;SDS011;11033;47.490;11.116;2023-12-20T12:41:43;1.67;;;1.35;;
21741;SDS011;11033;47.490;11.116;2023-12-20T12:44:08;1.15;;;1.05;;
21741;SDS011;11033;47.490;11.116;2023-12-20T12:46:33;1.85;;;1.10;;
21741;SDS011;11033;47.490;11.116;2023-12-20T12:48:59;1.50;;;1.40;;
21741;SDS011;11033;47.490;11.116;2023-12-20T12:51:25;1.92;;;1.10;;
21741;SDS011;11033;47.490;11.116;2023-12-20T12:53:50;1.40;;;1.30;;
21741;SDS011;11033;47.490;11.116;2023-12-20T12:56:15;1.45;;;1.00;;
21741;SDS011;11033;47.490;11.116;2023-12-20T12:58:41;0.80;;;0.80;;
21741;SDS011;11033;47.490;11.116;2023-12-20T13:01:07;2.05;;;1.00;;
21741;SDS011;11033;47.490;11.116;2023-12-20T13:03:32;1.75;;;0.85;;
21741;SDS011;11033;47.490;11.116;2023-12-20T13:05:57;1.00;;;0.80;;
21741;SDS011;11033;47.490;11.116;2023-12-20T13:08:23;1.75;;;0.90;;
21741;SDS011;11033;47.490;11.116;2023-12-20T13:10:48;1.30;;;1.10;;
21741;SDS011;11033;47.490;11.116;2023-12-20T13:13:14;2.20;;;1.60;;
21741;SDS011;11033;47.490;11.116;2023-12-20T13:15:39;2.25;;;1.52;;
21741;SDS011;11033;47.490;11.116;2023-12-20T13:18:05;1.52;;;0.90;;
21741;SDS011;11033;47.490;11.116;2023-12-20T13:20:31;1.77;;;1.10;;
21741;SDS011;11033;47.490;11.116;2023-12-20T13:22:58;1.00;;;0.90;;
21741;SDS011;11033;47.490;11.116;2023-12-20T13:25:23;0.82;;;0.82;;
21741;SDS011;11033;47.490;11.116;2023-12-20T13:27:49;0.80;;;0.80;;
21741;SDS011;11033;47.490;11.116;2023-12-20T13:30:15;1.10;;;0.85;;
21741;SDS011;11033;47.490;11.116;2023-12-20T13:32:41;0.70;;;0.70;;
21741;SDS011;11033;47.490;11.116;2023-12-20T13:35:07;2.10;;;1.13;;
21741;SDS011;11033;47.490;11.116;2023-12-20T13:37:32;1.08;;;0.98;;
21741;SDS011;11033;47.490;11.116;2023-12-20T13:39:57;1.40;;;1.00;;
21741;SDS011;11033;47.490;11.116;2023-12-20T13:42:23;1.55;;;0.80;;
21741;SDS011;11033;47.490;11.116;2023-12-20T13:44:48;2.58;;;0.98;;
21741;SDS011;11033;47.490;11.116;2023-12-20T13:47:13;2.42;;;1.10;;
21741;SDS011;11033;47.490;11.116;2023-12-20T13:49:38;0.73;;;0.70;;
21741;SDS011;11033;47.490;11.116;2023-12-20T13:52:04;0.82;;;0.82;;
21741;SDS011;11033;47.490;11.116;2023-12-20T13:54:29;1.02;;;0.90;;
21741;SDS011;11033;47.490;11.116;2023-12-20T13:56:55;1.00;;;0.80;;
21741;SDS011;11033;47.490;11.116;2023-12-20T13:59:22;0.63;;;0.63;;
21741;SDS011;11033;47.490;11.116;2023-12-20T14:01:48;0.80;;;0.80;;
21741;SDS011;11033;47.490;11.116;2023-12-20T14:04:15;0.77;;;0.73;;
21741;SDS011;11033;47.490;11.116;2023-12-20T14:06:40;0.98;;;0.70;;
21741;SDS011;11033;47.490;11.116;2023-12-20T14:09:06;0.63;;;0.63;;
21741;SDS011;11033;47.490;11.116;2023-12-20T14:11:31;1.00;;;0.70;;
21741;SDS011;11033;47.490;11.116;2023-12-20T14:13:56;1.05;;;0.80;;
21741;SDS011;11033;47.490;11.116;2023-12-20T14:16:23;0.63;;;0.55;;
21741;SDS011;11033;47.490;11.116;2023-12-20T14:18:49;0.85;;;0.85;;
21741;SDS011;11033;47.490;11.116;2023-12-20T14:21:16;0.90;;;0.90;;
21741;SDS011;11033;47.490;11.116;2023-12-20T14:23:42;1.20;;;1.10;;
21741;SDS011;11033;47.490;11.116;2023-12-20T14:26:07;1.92;;;1.40;;
21741;SDS011;11033;47.490;11.116;2023-12-20T14:28:32;1.25;;;1.10;;
21741;SDS011;11033;47.490;11.116;2023-12-20T14:30:58;1.42;;;1.23;;